Time;durP1;ratioP1;P1;durP2;ratioP2;P2;SDS_P1;SDS_P2;PMS_P1;PMS_P2;Temp;Humidity;BMP_temperature;BMP_pressure;BME280_temperature;BME280_humidity;BME280_pressure;Samples;Min_cycle;Max_cycle;Signal;HPM_P1;HPM_P2
2022/10/31 00:07:55;;;;;;;9.45;6.88;;;;;;;21.83;63.96;100936.34;20974910;28;20139;-73
2022/10/31 00:17:55;;;;;;;8.88;6.60;;;;;;;21.82;64.02;100936.47;20974293;28;20033;-73
2022/10/31 00:27:55;;;;;;;10.75;7.07;;;;;;;21.80;64.00;100936.59;20970521;28;20184;-73
2022/10/31 00:37:56;;;;;;;9.05;6.93;;;;;;;21.79;63.86;100934.91;20975622;28;20032;-73
2022/10/31 00:47:56;;;;;;;10.82;7.72;;;;;;;21.77;64.20;100928.88;20971854;28;20040;-73
2022/10/31 00:57:57;;;;;;;10.68;7.68;;;;;;;21.79;63.75;100921.72;20970889;28;20036;-73
2022/10/31 01:07:58;;;;;;;10.32;7.57;;;;;;;21.77;64.00;100926.25;20967224;28;20048;-73
2022/10/31 01:17:58;;;;;;;12.00;8.55;;;;;;;21.75;63.66;100915.81;20991636;28;20524;-73
2022/10/31 01:27:58;;;;;;;11.77;9.07;;;;;;;21.73;63.53;100914.25;20993843;28;20041;-74
2022/10/31 01:37:59;;;;;;;12.48;9.00;;;;;;;21.70;63.63;100896.00;20994681;28;20036;-73
2022/10/31 01:47:59;;;;;;;12.45;9.00;;;;;;;21.71;63.66;100898.53;20997198;28;20437;-73
2022/10/31 01:58:06;;;;;;;12.55;8.88;;;;;;;21.71;63.44;100901.16;20996282;27;20106;-73
2022/10/31 02:08:20;;;;;;;12.02;8.32;;;;;;;21.70;63.54;100896.88;20999086;28;20040;-72
2022/10/31 02:18:22;;;;;;;11.70;8.77;;;;;;;21.68;63.59;100898.75;20996537;28;20059;-76
2022/10/31 02:28:23;;;;;;;;;;;;;;;21.71;63.37;100887.97;20982760;28;20068;-72
2022/10/31 02:39:23;;;;;;;11.18;7.82;;;;;;;21.68;63.71;100893.50;20977398;28;19916;-73
2022/10/31 02:49:46;;;;;;;10.63;8.02;;;;;;;21.67;63.66;100902.34;20832754;28;20048;-72
2022/10/31 02:59:50;;;;;;;12.68;7.63;;;;;;;21.65;63.76;100912.16;20981991;28;20040;-73
2022/10/31 03:10:04;;;;;;;11.82;7.78;;;;;;;21.66;63.43;100921.75;20976261;28;20044;-73
2022/10/31 03:20:08;;;;;;;10.25;7.53;;;;;;;21.64;63.29;100921.03;20979131;28;20044;-73
2022/10/31 03:30:09;;;;;;;8.85;6.93;;;;;;;21.64;63.64;100920.16;20977684;28;20056;-73
2022/10/31 03:40:12;;;;;;;10.77;7.65;;;;;;;21.61;63.32;100930.94;20979797;28;20024;-73
2022/10/31 03:50:15;;;;;;;11.18;8.07;;;;;;;21.61;63.39;100929.13;20981136;28;20040;-73
2022/10/31 04:00:16;;;;;;;10.60;7.45;;;;;;;21.60;63.39;100932.72;20977038;28;20044;-73
2022/10/31 04:10:18;;;;;;;10.95;7.72;;;;;;;21.58;63.42;100918.81;20980051;28;20041;-73
2022/10/31 04:20:29;;;;;;;9.07;7.00;;;;;;;21.59;63.48;100933.66;20970415;28;20036;-73
2022/10/31 04:30:29;;;;;;;10.15;7.15;;;;;;;21.58;63.25;100939.88;20972468;28;20082;-73
2022/10/31 04:40:30;;;;;;;9.35;7.32;;;;;;;21.57;63.25;100946.97;20973272;28;20067;-73
2022/10/31 04:50:30;;;;;;;9.05;7.22;;;;;;;21.56;63.42;100947.03;20973494;28;20433;-73
2022/10/31 05:00:31;;;;;;;7.68;6.18;;;;;;;21.56;63.38;100950.53;20974735;28;20495;-73
2022/10/31 05:10:31;;;;;;;9.65;7.18;;;;;;;21.60;63.15;100956.44;20961100;28;20870;-73
2022/10/31 05:20:31;;;;;;;10.30;8.35;;;;;;;21.64;62.94;100965.84;20967757;28;20040;-73
2022/10/31 05:30:33;;;;;;;14.80;11.48;;;;;;;21.67;63.06;100941.88;20959956;28;20761;-72
2022/10/31 05:40:33;;;;;;;21.27;14.60;;;;;;;21.69;63.37;100968.13;20967326;28;20044;-72
2022/10/31 05:50:34;;;;;;;16.92;12.48;;;;;;;21.72;63.41;100978.47;20967344;28;20515;-72
2022/10/31 06:00:34;;;;;;;16.48;12.02;;;;;;;21.76;63.27;100972.00;20975933;28;20132;-71
2022/10/31 06:10:35;;;;;;;16.75;11.23;;;;;;;21.79;63.91;100985.00;20976296;28;20076;-71
2022/10/31 06:20:37;;;;;;;14.20;10.87;;;;;;;21.83;63.77;100975.06;20977767;28;20051;-72
2022/10/31 06:30:37;;;;;;;14.25;10.25;;;;;;;21.87;63.96;100981.81;20976120;28;20056;-74
2022/10/31 06:40:37;;;;;;;14.25;9.38;;;;;;;21.91;63.67;100988.56;20966581;28;20139;-73
2022/10/31 06:50:38;;;;;;;11.23;9.27;;;;;;;21.94;64.04;101006.78;20967241;28;20440;-73
2022/10/31 07:00:38;;;;;;;15.25;9.70;;;;;;;21.99;64.45;101009.94;20927067;28;20634;-76
2022/10/31 07:10:40;;;;;;;12.57;8.95;;;;;;;22.02;64.25;101004.44;20965979;27;20044;-75
2022/10/31 07:20:41;;;;;;;12.20;8.98;;;;;;;22.03;63.59;101008.78;20960562;28;20058;-75
2022/10/31 07:30:41;;;;;;;12.82;8.57;;;;;;;21.85;61.73;101018.81;20965641;28;20048;-75
2022/10/31 07:40:42;;;;;;;13.32;8.95;;;;;;;21.95;62.05;101019.03;20961449;28;20407;-73
2022/10/31 07:50:43;;;;;;;11.73;8.30;;;;;;;22.00;61.91;101016.06;20989583;28;20514;-75
2022/10/31 08:00:46;;;;;;;11.02;7.75;;;;;;;22.05;62.52;101017.41;20981939;28;20059;-75
2022/10/31 08:10:46;;;;;;;13.35;8.57;;;;;;;22.03;60.96;101026.38;20959057;28;20400;-75
2022/10/31 08:20:46;;;;;;;17.95;8.45;;;;;;;22.01;60.36;101028.31;20950167;27;20037;-75
2022/10/31 08:30:47;;;;;;;19.45;8.75;;;;;;;22.04;60.89;101033.34;20953238;28;20040;-79
2022/10/31 08:40:49;;;;;;;22.40;10.13;;;;;;;21.93;58.60;101025.34;20978435;28;20376;-78
2022/10/31 08:50:49;;;;;;;17.50;8.60;;;;;;;21.98;59.72;101028.50;20979131;28;20944;-79
2022/10/31 09:00:52;;;;;;;13.32;8.05;;;;;;;21.97;60.39;101037.34;20976846;28;20148;-79
2022/10/31 09:10:56;;;;;;;14.95;8.02;;;;;;;22.00;60.91;101045.06;20997006;28;20040;-75
2022/10/31 09:20:58;;;;;;;15.60;7.65;;;;;;;22.00;61.39;101042.44;20949146;28;20402;-80
2022/10/31 09:30:58;;;;;;;14.23;7.10;;;;;;;22.00;61.11;101040.63;20937362;28;20044;-74
2022/10/31 09:41:19;;;;;;;21.25;8.10;;;;;;;22.01;61.27;101044.13;20965267;28;20043;-73
2022/10/31 09:51:33;;;;;;;15.18;7.45;;;;;;;21.99;61.69;101048.66;20968006;28;20040;-75
2022/10/31 10:01:51;;;;;;;17.80;7.88;;;;;;;21.98;61.84;101044.31;20960580;28;20049;-74
2022/10/31 10:12:14;;;;;;;20.40;7.18;;;;;;;21.95;61.67;101042.75;20950625;28;20043;-79
2022/10/31 10:22:47;;;;;;;17.80;7.40;;;;;;;22.00;61.91;101039.78;20947497;28;20134;-71
2022/10/31 10:32:52;;;;;;;24.58;11.82;;;;;;;21.28;55.82;101031.44;20943524;28;20055;-72
2022/10/31 10:53:38;;;;;;;18.67;9.50;;;;;;;21.72;59.15;101025.91;20963812;28;20056;-72
2022/10/31 11:03:39;;;;;;;22.67;9.23;;;;;;;21.81;60.57;101019.97;20965543;28;21687;-73
2022/10/31 11:13:41;;;;;;;28.80;13.75;;;;;;;21.95;63.35;101013.75;20953639;28;20044;-72
2022/10/31 11:23:42;;;;;;;31.67;15.07;;;;;;;22.06;65.63;101012.97;20950465;28;20119;-73
2022/10/31 11:33:54;;;;;;;28.77;15.50;;;;;;;22.17;67.27;101012.22;20960250;28;20066;-74
2022/10/31 11:44:21;;;;;;;;;;;;;;;22.23;67.70;100998.59;20977098;28;20686;-72
2022/10/31 11:54:32;;;;;;;31.65;17.42;;;;;;;22.30;68.04;100991.06;20987077;28;19924;-78
2022/10/31 12:04:43;;;;;;;31.88;16.63;;;;;;;22.35;67.81;101002.09;20976333;28;20052;-79
2022/10/31 12:14:43;;;;;;;30.57;15.33;;;;;;;22.35;67.59;101000.34;20964685;28;20072;-78
2022/10/31 12:24:44;;;;;;;26.52;14.95;;;;;;;22.37;66.81;101000.22;20986580;28;20032;-80
2022/10/31 12:35:21;;;;;;;23.77;13.50;;;;;;;22.38;66.47;101000.13;20995297;28;20048;-78
2022/10/31 12:45:54;;;;;;;24.60;12.68;;;;;;;22.37;66.07;100994.94;20998097;28;20043;-81
2022/10/31 12:55:54;;;;;;;;;;;;;;;22.38;65.85;100991.38;20998658;28;20051;-80
2022/10/31 13:05:58;;;;;;;48.05;18.55;;;;;;;22.38;65.32;100986.94;21018493;28;19924;-73
2022/10/31 13:16:04;;;;;;;45.72;17.85;;;;;;;22.38;65.17;100981.66;20998116;28;20079;-74
2022/10/31 13:26:18;;;;;;;35.65;14.45;;;;;;;22.35;64.92;100984.50;20995793;28;20040;-74
2022/10/31 13:36:32;;;;;;;27.50;13.20;;;;;;;22.33;65.00;100977.66;20988278;28;20090;-74
2022/10/31 13:46:32;;;;;;;33.30;14.10;;;;;;;22.33;64.50;100977.66;20995703;28;20048;-76
2022/10/31 13:56:34;;;;;;;21.92;11.50;;;;;;;22.30;64.75;100977.88;21011329;28;20130;-74
2022/10/31 14:06:43;;;;;;;26.10;13.20;;;;;;;22.30;64.78;100977.88;20994602;28;20414;-75
2022/10/31 14:16:45;;;;;;;23.25;12.38;;;;;;;22.31;64.68;100983.03;21022047;28;20059;-76
2022/10/31 14:26:59;;;;;;;21.90;12.10;;;;;;;22.26;64.35;100977.25;21018887;28;20036;-77
2022/10/31 14:37:36;;;;;;;22.67;12.30;;;;;;;22.28;64.22;100974.53;21030893;28;20161;-73
2022/10/31 14:47:38;;;;;;;22.45;11.02;;;;;;;22.30;64.31;100964.69;20985817;28;20051;-75
2022/10/31 14:57:46;;;;;;;19.75;10.95;;;;;;;22.30;64.40;100976.09;20975299;28;20139;-75
2022/10/31 15:07:56;;;;;;;19.42;10.38;;;;;;;22.30;64.55;100973.44;20969155;28;20071;-75
2022/10/31 15:18:00;;;;;;;18.15;9.70;;;;;;;22.29;64.36;100969.13;20976072;28;20546;-75
2022/10/31 15:28:00;;;;;;;16.02;9.52;;;;;;;22.29;64.32;100965.63;20988172;28;20072;-77
2022/10/31 15:38:01;;;;;;;17.90;9.45;;;;;;;22.28;64.35;100967.44;20965163;28;20396;-75
2022/10/31 15:48:24;;;;;;;18.10;9.52;;;;;;;22.28;64.11;100985.91;20953117;28;20048;-75
2022/10/31 15:58:28;;;;;;;14.05;8.57;;;;;;;22.27;64.32;100989.50;20874739;28;20044;-77
2022/10/31 16:08:28;;;;;;;14.25;8.77;;;;;;;22.24;64.04;100997.63;20957554;28;20048;-75
2022/10/31 16:18:36;;;;;;;22.70;11.30;;;;;;;22.25;64.45;101009.03;20979302;28;20058;-75
2022/10/31 16:28:36;;;;;;;30.88;12.50;;;;;;;22.30;64.95;101014.81;20977006;28;20040;-77
2022/10/31 16:38:37;;;;;;;17.58;10.88;;;;;;;22.29;64.72;101024.53;20976874;28;20036;-78
2022/10/31 16:48:37;;;;;;;21.48;10.98;;;;;;;22.31;65.10;101027.88;20983902;28;20105;-78
2022/10/31 16:58:38;;;;;;;18.92;11.18;;;;;;;22.34;65.74;101030.31;20969453;28;20515;-77
2022/10/31 17:08:38;;;;;;;19.85;10.88;;;;;;;22.39;65.56;101045.84;20967599;28;20114;-78
2022/10/31 17:18:39;;;;;;;22.60;10.88;;;;;;;22.37;65.29;101045.94;20959968;28;20036;-80
2022/10/31 17:28:39;;;;;;;18.73;9.95;;;;;;;22.37;65.05;101040.66;20977789;28;20531;-78
2022/10/31 17:38:40;;;;;;;18.10;9.85;;;;;;;22.37;65.22;101040.66;20981170;28;20047;-81
2022/10/31 17:48:40;;;;;;;16.60;9.55;;;;;;;22.38;65.10;101031.78;20961537;28;20052;-74
2022/10/31 17:58:41;;;;;;;21.07;10.33;;;;;;;22.33;63.04;101048.88;20986134;28;20115;-83
2022/10/31 18:08:42;;;;;;;17.52;9.85;;;;;;;22.33;64.38;101043.63;21006078;28;20284;-82
2022/10/31 18:18:42;;;;;;;21.98;9.75;;;;;;;22.31;64.21;101034.97;21018772;28;20043;-79
2022/10/31 18:28:43;;;;;;;15.40;8.82;;;;;;;22.26;63.80;101037.91;20999033;28;20047;-81
2022/10/31 18:38:43;;;;;;;16.73;9.50;;;;;;;22.23;63.95;101038.16;21012917;28;20041;-80
2022/10/31 18:48:44;;;;;;;15.20;8.73;;;;;;;22.19;64.06;101034.91;21019770;28;20052;-80
2022/10/31 18:58:44;;;;;;;16.02;8.70;;;;;;;22.18;64.14;101041.13;21018418;28;20124;-79
2022/10/31 19:08:45;;;;;;;13.38;8.27;;;;;;;22.14;63.92;101036.16;20997671;28;20047;-80
2022/10/31 19:18:45;;;;;;;13.45;8.18;;;;;;;22.09;63.49;101033.84;20998788;28;20048;-81
2022/10/31 19:28:46;;;;;;;11.20;7.68;;;;;;;22.08;63.42;101032.16;21007677;28;20059;-80
2022/10/31 19:38:48;;;;;;;13.27;7.35;;;;;;;22.07;63.30;101036.59;20999691;28;20071;-82
2022/10/31 19:48:49;;;;;;;12.25;7.10;;;;;;;22.03;63.60;101032.50;21006456;28;20120;-81
2022/10/31 19:58:50;;;;;;;12.32;7.85;;;;;;;22.03;63.49;101036.91;20998618;28;20135;-79
2022/10/31 20:08:52;;;;;;;11.57;7.37;;;;;;;21.98;63.13;101042.50;20992491;28;20049;-81
2022/10/31 20:18:53;;;;;;;11.27;6.57;;;;;;;21.96;62.90;101047.06;21009539;28;20068;-81
2022/10/31 20:28:57;;;;;;;11.80;7.18;;;;;;;21.95;63.32;101052.44;21019480;28;20089;-82
2022/10/31 20:38:59;;;;;;;9.05;6.32;;;;;;;21.92;63.20;101045.59;20994607;28;20032;-86
2022/10/31 20:49:03;;;;;;;12.20;6.32;;;;;;;21.88;63.17;101041.50;21002410;28;20040;-83
2022/10/31 20:59:05;;;;;;;10.43;6.15;;;;;;;21.86;63.19;101044.25;21008690;28;20724;-87
2022/10/31 21:09:07;;;;;;;12.13;6.50;;;;;;;21.87;62.97;101045.06;20992769;28;20607;-84
2022/10/31 21:19:08;;;;;;;19.77;6.90;;;;;;;21.86;62.53;101043.38;20985286;28;20791;-77
2022/10/31 21:29:09;;;;;;;18.00;6.72;;;;;;;21.86;63.14;101038.97;20950396;28;20166;-78
2022/10/31 21:39:10;;;;;;;17.05;7.10;;;;;;;21.86;62.88;101036.34;20989574;28;20048;-78
2022/10/31 21:49:10;;;;;;;14.25;6.57;;;;;;;21.86;63.01;101023.16;20981980;28;20043;-76
2022/10/31 21:59:11;;;;;;;10.68;6.57;;;;;;;21.86;63.15;101022.28;20987041;28;20043;-77
2022/10/31 22:09:13;;;;;;;11.85;6.07;;;;;;;21.83;62.98;101019.88;20983854;28;20068;-74
2022/10/31 22:19:14;;;;;;;9.83;6.03;;;;;;;21.81;63.14;101019.97;20995097;28;20040;-77
2022/10/31 22:29:18;;;;;;;12.77;6.45;;;;;;;21.80;63.20;101017.44;20992002;28;20040;-75
2022/10/31 22:39:19;;;;;;;14.93;6.00;;;;;;;21.78;62.99;101014.94;20996589;28;20522;-75
2022/10/31 22:49:20;;;;;;;11.13;6.20;;;;;;;21.77;63.11;101013.25;20997688;28;20044;-75
2022/10/31 22:59:20;;;;;;;10.00;5.95;;;;;;;;;;20995400;28;20461;-75
2022/10/31 23:09:20;;;;;;;9.63;5.78;;;;;;;21.73;62.85;101004.69;20995353;28;20072;-76
2022/10/31 23:19:25;;;;;;;8.50;5.65;;;;;;;21.70;63.17;100997.03;21000074;28;20093;-76
2022/10/31 23:29:25;;;;;;;10.95;5.63;;;;;;;21.71;63.08;100995.22;20988225;28;20503;-76
2022/10/31 23:39:26;;;;;;;10.63;5.90;;;;;;;21.68;63.35;100995.41;20986419;28;20041;-76
2022/10/31 23:49:28;;;;;;;8.30;5.20;;;;;;;21.66;63.30;100989.44;20993163;28;20407;-74
2022/10/31 23:59:29;;;;;;;8.73;5.57;;;;;;;21.66;63.39;100986.81;20988133;28;20048;-76
